sensor_id;sensor_type;location;lat;lon;timestamp;pressure;altitude;pressure_sealevel;temperature;humidity
30949;BME280;17637;51.984;21.208;2022-12-07T00:02:17;99534.50;;;1.41;78.03
30949;BME280;17637;51.984;21.208;2022-12-07T00:04:49;99529.47;;;1.39;77.65
30949;BME280;17637;51.984;21.208;2022-12-07T00:07:21;99536.03;;;1.45;77.52
30949;BME280;17637;51.984;21.208;2022-12-07T00:09:58;99514.94;;;1.40;77.43
30949;BME280;17637;51.984;21.208;2022-12-07T00:12:30;99532.63;;;1.44;78.03
30949;BME280;17637;51.984;21.208;2022-12-07T00:15:02;99541.63;;;1.53;77.89
30949;BME280;17637;51.984;21.208;2022-12-07T00:17:35;99534.53;;;1.58;77.88
30949;BME280;17637;51.984;21.208;2022-12-07T00:20:07;99538.59;;;1.62;77.97
30949;BME280;17637;51.984;21.208;2022-12-07T00:22:39;99541.25;;;1.61;77.86
30949;BME280;17637;51.984;21.208;2022-12-07T00:25:11;99523.25;;;1.62;77.92
30949;BME280;17637;51.984;21.208;2022-12-07T00:27:43;99533.66;;;1.59;78.29
30949;BME280;17637;51.984;21.208;2022-12-07T00:30:15;99521.44;;;1.64;77.94
30949;BME280;17637;51.984;21.208;2022-12-07T00:32:47;99539.00;;;1.72;78.04
30949;BME280;17637;51.984;21.208;2022-12-07T00:35:19;99493.78;;;1.54;78.03
30949;BME280;17637;51.984;21.208;2022-12-07T00:37:51;99523.31;;;1.61;78.59
30949;BME280;17637;51.984;21.208;2022-12-07T00:40:23;99531.41;;;1.71;78.45
30949;BME280;17637;51.984;21.208;2022-12-07T00:42:55;99485.94;;;1.39;79.00
30949;BME280;17637;51.984;21.208;2022-12-07T00:45:27;99519.09;;;1.60;78.96
30949;BME280;17637;51.984;21.208;2022-12-07T00:47:59;99536.66;;;1.68;79.38
30949;BME280;17637;51.984;21.208;2022-12-07T00:50:31;99530.44;;;1.73;79.33
30949;BME280;17637;51.984;21.208;2022-12-07T00:53:03;99541.81;;;1.85;78.97
30949;BME280;17637;51.984;21.208;2022-12-07T00:55:35;99540.28;;;1.99;78.67
30949;BME280;17637;51.984;21.208;2022-12-07T00:58:08;99542.63;;;2.03;78.68
30949;BME280;17637;51.984;21.208;2022-12-07T01:00:42;99499.44;;;1.78;78.26
30949;BME280;17637;51.984;21.208;2022-12-07T01:03:15;99517.56;;;1.92;78.19
30949;BME280;17637;51.984;21.208;2022-12-07T01:05:52;99537.50;;;2.03;78.23
30949;BME280;17637;51.984;21.208;2022-12-07T01:08:26;99550.63;;;2.15;78.29
30949;BME280;17637;51.984;21.208;2022-12-07T01:11:07;99531.25;;;2.09;78.28
30949;BME280;17637;51.984;21.208;2022-12-07T01:13:39;99540.38;;;2.15;78.48
30949;BME280;17637;51.984;21.208;2022-12-07T01:16:14;99514.22;;;2.08;78.21
30949;BME280;17637;51.984;21.208;2022-12-07T01:18:51;99538.31;;;2.21;78.17
30949;BME280;17637;51.984;21.208;2022-12-07T01:21:32;99533.38;;;2.18;78.28
30949;BME280;17637;51.984;21.208;2022-12-07T01:24:09;99531.47;;;2.22;78.31
30949;BME280;17637;51.984;21.208;2022-12-07T01:26:42;99512.25;;;2.13;78.27
30949;BME280;17637;51.984;21.208;2022-12-07T01:29:13;99506.28;;;2.12;78.22
30949;BME280;17637;51.984;21.208;2022-12-07T01:31:48;99508.63;;;2.17;77.90
30949;BME280;17637;51.984;21.208;2022-12-07T01:34:21;99494.44;;;2.10;78.08
30949;BME280;17637;51.984;21.208;2022-12-07T01:36:53;99505.78;;;2.06;78.57
30949;BME280;17637;51.984;21.208;2022-12-07T01:39:26;99529.50;;;2.27;78.27
30949;BME280;17637;51.984;21.208;2022-12-07T01:41:58;99504.56;;;2.13;78.34
30949;BME280;17637;51.984;21.208;2022-12-07T01:44:30;99524.75;;;2.19;78.45
30949;BME280;17637;51.984;21.208;2022-12-07T01:47:04;99500.56;;;2.07;78.49
30949;BME280;17637;51.984;21.208;2022-12-07T01:49:46;99518.72;;;2.20;78.38
30949;BME280;17637;51.984;21.208;2022-12-07T01:52:23;99512.78;;;2.20;78.36
30949;BME280;17637;51.984;21.208;2022-12-07T01:55:00;99517.44;;;2.29;78.21
30949;BME280;17637;51.984;21.208;2022-12-07T01:57:34;99522.47;;;2.30;78.42
30949;BME280;17637;51.984;21.208;2022-12-07T02:00:09;99517.59;;;2.26;78.24
30949;BME280;17637;51.984;21.208;2022-12-07T02:02:45;99509.63;;;2.15;78.62
30949;BME280;17637;51.984;21.208;2022-12-07T02:05:19;99512.25;;;2.13;79.11
30949;BME280;17637;51.984;21.208;2022-12-07T02:07:53;99507.94;;;2.13;79.04
30949;BME280;17637;51.984;21.208;2022-12-07T02:10:29;99499.16;;;2.02;79.11
30949;BME280;17637;51.984;21.208;2022-12-07T02:13:13;99484.03;;;1.79;79.37
30949;BME280;17637;51.984;21.208;2022-12-07T02:24:44;99509.53;;;1.99;79.65
30949;BME280;17637;51.984;21.208;2022-12-07T02:30:07;99503.81;;;1.93;79.69
30949;BME280;17637;51.984;21.208;2022-12-07T02:36:02;99507.34;;;1.91;79.42
30949;BME280;17637;51.984;21.208;2022-12-07T02:38:31;99486.41;;;1.83;79.48
30949;BME280;17637;51.984;21.208;2022-12-07T02:41:23;99500.94;;;2.00;78.98
30949;BME280;17637;51.984;21.208;2022-12-07T02:44:00;99489.78;;;1.83;79.16
30949;BME280;17637;51.984;21.208;2022-12-07T02:46:37;99487.91;;;1.69;78.75
30949;BME280;17637;51.984;21.208;2022-12-07T02:49:10;99447.75;;;1.35;78.94
30949;BME280;17637;51.984;21.208;2022-12-07T02:51:44;99482.66;;;1.72;79.04
30949;BME280;17637;51.984;21.208;2022-12-07T02:54:19;99488.88;;;1.67;79.06
30949;BME280;17637;51.984;21.208;2022-12-07T02:59:50;99478.72;;;1.83;78.83
30949;BME280;17637;51.984;21.208;2022-12-07T03:05:54;99491.53;;;1.65;79.48
30949;BME280;17637;51.984;21.208;2022-12-07T03:09:09;99467.06;;;1.59;79.18
30949;BME280;17637;51.984;21.208;2022-12-07T03:11:48;99487.38;;;1.62;79.07
30949;BME280;17637;51.984;21.208;2022-12-07T03:14:30;99480.91;;;1.55;79.34
30949;BME280;17637;51.984;21.208;2022-12-07T03:19:41;99461.41;;;1.53;78.67
30949;BME280;17637;51.984;21.208;2022-12-07T03:22:14;99491.22;;;1.54;78.77
30949;BME280;17637;51.984;21.208;2022-12-07T03:24:57;99471.84;;;1.48;78.82
30949;BME280;17637;51.984;21.208;2022-12-07T03:27:45;99487.16;;;1.67;78.50
30949;BME280;17637;51.984;21.208;2022-12-07T03:30:24;99465.31;;;1.42;78.62
30949;BME280;17637;51.984;21.208;2022-12-07T03:33:10;99484.53;;;1.69;78.11
30949;BME280;17637;51.984;21.208;2022-12-07T03:35:51;99483.16;;;1.61;78.05
30949;BME280;17637;51.984;21.208;2022-12-07T03:38:42;99464.09;;;1.32;78.84
30949;BME280;17637;51.984;21.208;2022-12-07T03:41:27;99474.22;;;1.53;78.17
30949;BME280;17637;51.984;21.208;2022-12-07T03:44:01;99453.50;;;1.40;78.34
30949;BME280;17637;51.984;21.208;2022-12-07T03:46:49;99473.84;;;1.60;78.11
30949;BME280;17637;51.984;21.208;2022-12-07T03:49:37;99414.28;;;1.20;78.11
30949;BME280;17637;51.984;21.208;2022-12-07T03:52:15;99473.72;;;1.44;78.45
30949;BME280;17637;51.984;21.208;2022-12-07T03:54:58;99467.88;;;1.42;78.13
30949;BME280;17637;51.984;21.208;2022-12-07T03:57:33;99468.41;;;1.12;78.95
30949;BME280;17637;51.984;21.208;2022-12-07T04:00:07;99480.00;;;1.39;78.43
30949;BME280;17637;51.984;21.208;2022-12-07T04:02:41;99465.59;;;1.36;77.84
30949;BME280;17637;51.984;21.208;2022-12-07T04:05:13;99436.16;;;1.27;78.16
30949;BME280;17637;51.984;21.208;2022-12-07T04:07:45;99456.19;;;1.37;77.83
30949;BME280;17637;51.984;21.208;2022-12-07T04:10:18;99461.09;;;1.41;78.28
30949;BME280;17637;51.984;21.208;2022-12-07T04:12:50;99445.72;;;1.41;77.97
30949;BME280;17637;51.984;21.208;2022-12-07T04:15:22;99445.69;;;1.24;78.03
30949;BME280;17637;51.984;21.208;2022-12-07T04:17:54;99443.31;;;1.21;78.01
30949;BME280;17637;51.984;21.208;2022-12-07T04:20:26;99435.53;;;1.22;77.94
30949;BME280;17637;51.984;21.208;2022-12-07T04:22:58;99462.66;;;1.26;77.95
30949;BME280;17637;51.984;21.208;2022-12-07T04:25:30;99448.34;;;1.22;78.06
30949;BME280;17637;51.984;21.208;2022-12-07T04:28:02;99451.63;;;1.07;78.45
30949;BME280;17637;51.984;21.208;2022-12-07T04:30:35;99437.31;;;1.03;78.20
30949;BME280;17637;51.984;21.208;2022-12-07T04:33:06;99450.56;;;1.11;78.14
30949;BME280;17637;51.984;21.208;2022-12-07T04:35:42;99453.38;;;1.24;77.73
30949;BME280;17637;51.984;21.208;2022-12-07T04:38:14;99456.66;;;1.08;77.98
30949;BME280;17637;51.984;21.208;2022-12-07T04:40:46;99455.53;;;1.14;77.63
30949;BME280;17637;51.984;21.208;2022-12-07T04:43:18;99452.06;;;0.97;78.22
30949;BME280;17637;51.984;21.208;2022-12-07T04:45:50;99454.72;;;1.13;77.58
30949;BME280;17637;51.984;21.208;2022-12-07T04:48:22;99444.66;;;0.91;78.12
30949;BME280;17637;51.984;21.208;2022-12-07T04:50:55;99443.88;;;1.08;77.86
30949;BME280;17637;51.984;21.208;2022-12-07T04:53:27;99448.22;;;1.06;77.59
30949;BME280;17637;51.984;21.208;2022-12-07T04:55:58;99447.59;;;1.01;77.51
30949;BME280;17637;51.984;21.208;2022-12-07T04:58:32;99444.69;;;1.09;77.37
30949;BME280;17637;51.984;21.208;2022-12-07T05:01:04;99424.41;;;0.87;77.86
30949;BME280;17637;51.984;21.208;2022-12-07T05:03:36;99418.81;;;0.97;77.49
30949;BME280;17637;51.984;21.208;2022-12-07T05:06:09;99435.25;;;0.92;78.09
30949;BME280;17637;51.984;21.208;2022-12-07T05:08:44;99434.00;;;1.01;77.67
30949;BME280;17637;51.984;21.208;2022-12-07T05:11:16;99437.97;;;1.06;77.69
30949;BME280;17637;51.984;21.208;2022-12-07T05:14:19;99424.88;;;0.95;77.67
30949;BME280;17637;51.984;21.208;2022-12-07T05:16:52;99437.00;;;0.91;77.71
30949;BME280;17637;51.984;21.208;2022-12-07T05:19:25;99418.47;;;0.86;77.67
30949;BME280;17637;51.984;21.208;2022-12-07T05:21:58;99399.34;;;0.76;77.60
30949;BME280;17637;51.984;21.208;2022-12-07T05:24:30;99421.75;;;0.71;77.90
30949;BME280;17637;51.984;21.208;2022-12-07T05:27:02;99420.06;;;0.70;78.21
30949;BME280;17637;51.984;21.208;2022-12-07T05:29:34;99428.47;;;0.72;78.54
30949;BME280;17637;51.984;21.208;2022-12-07T05:32:06;99414.09;;;0.69;78.25
30949;BME280;17637;51.984;21.208;2022-12-07T05:34:38;99398.16;;;0.64;78.05
30949;BME280;17637;51.984;21.208;2022-12-07T05:37:13;99420.41;;;0.81;77.66
30949;BME280;17637;51.984;21.208;2022-12-07T05:39:45;99417.59;;;0.68;78.05
30949;BME280;17637;51.984;21.208;2022-12-07T05:42:17;99432.88;;;0.87;77.72
30949;BME280;17637;51.984;21.208;2022-12-07T05:44:49;99428.47;;;0.91;77.47
30949;BME280;17637;51.984;21.208;2022-12-07T05:47:21;99424.47;;;0.85;77.35
30949;BME280;17637;51.984;21.208;2022-12-07T05:49:53;99407.63;;;0.62;77.74
30949;BME280;17637;51.984;21.208;2022-12-07T05:52:25;99442.47;;;0.84;77.63
30949;BME280;17637;51.984;21.208;2022-12-07T05:54:57;99426.63;;;0.56;78.46
30949;BME280;17637;51.984;21.208;2022-12-07T05:57:29;99422.69;;;0.68;77.95
30949;BME280;17637;51.984;21.208;2022-12-07T06:00:03;99443.06;;;0.89;77.69
30949;BME280;17637;51.984;21.208;2022-12-07T06:02:36;99432.88;;;0.87;77.24
30949;BME280;17637;51.984;21.208;2022-12-07T06:05:08;99430.34;;;0.87;77.13
30949;BME280;17637;51.984;21.208;2022-12-07T06:07:40;99426.59;;;0.94;77.21
30949;BME280;17637;51.984;21.208;2022-12-07T06:10:12;99436.75;;;0.96;77.09
30949;BME280;17637;51.984;21.208;2022-12-07T06:12:44;99426.53;;;0.77;77.75
30949;BME280;17637;51.984;21.208;2022-12-07T06:15:18;99414.38;;;0.82;77.16
30949;BME280;17637;51.984;21.208;2022-12-07T06:17:49;99383.16;;;0.56;77.26
30949;BME280;17637;51.984;21.208;2022-12-07T06:20:21;99427.66;;;0.90;77.17
30949;BME280;17637;51.984;21.208;2022-12-07T06:22:53;99366.19;;;0.55;77.00
30949;BME280;17637;51.984;21.208;2022-12-07T06:25:25;99406.22;;;0.74;77.16
30949;BME280;17637;51.984;21.208;2022-12-07T06:27:57;99407.00;;;0.76;77.21
30949;BME280;17637;51.984;21.208;2022-12-07T06:30:29;99420.25;;;0.84;77.15
30949;BME280;17637;51.984;21.208;2022-12-07T06:33:01;99430.31;;;0.70;77.93
30949;BME280;17637;51.984;21.208;2022-12-07T06:35:33;99429.34;;;0.72;77.86
30949;BME280;17637;51.984;21.208;2022-12-07T06:38:05;99425.09;;;0.71;77.73
30949;BME280;17637;51.984;21.208;2022-12-07T06:40:37;99430.03;;;0.76;77.78
30949;BME280;17637;51.984;21.208;2022-12-07T06:43:09;99429.78;;;0.80;77.60
30949;BME280;17637;51.984;21.208;2022-12-07T06:45:41;99420.41;;;0.62;78.33
30949;BME280;17637;51.984;21.208;2022-12-07T06:48:14;99424.34;;;0.69;77.93
30949;BME280;17637;51.984;21.208;2022-12-07T06:50:47;99415.94;;;0.67;78.21
30949;BME280;17637;51.984;21.208;2022-12-07T06:53:25;99422.75;;;0.67;77.97
30949;BME280;17637;51.984;21.208;2022-12-07T06:55:57;99415.84;;;0.69;78.15
30949;BME280;17637;51.984;21.208;2022-12-07T06:58:29;99433.31;;;0.78;77.76
30949;BME280;17637;51.984;21.208;2022-12-07T07:01:02;99409.97;;;0.67;77.53
30949;BME280;17637;51.984;21.208;2022-12-07T07:03:34;99423.41;;;0.53;77.85
30949;BME280;17637;51.984;21.208;2022-12-07T07:06:06;99413.38;;;0.67;77.87
30949;BME280;17637;51.984;21.208;2022-12-07T07:08:39;99385.44;;;0.43;77.88
30949;BME280;17637;51.984;21.208;2022-12-07T07:11:11;99422.28;;;0.77;77.62
30949;BME280;17637;51.984;21.208;2022-12-07T07:13:44;99400.41;;;0.53;77.91
30949;BME280;17637;51.984;21.208;2022-12-07T07:16:16;99410.72;;;0.69;77.62
30949;BME280;17637;51.984;21.208;2022-12-07T07:18:48;99419.72;;;0.77;77.56
30949;BME280;17637;51.984;21.208;2022-12-07T07:21:20;99409.75;;;0.71;77.52
30949;BME280;17637;51.984;21.208;2022-12-07T07:23:52;99417.44;;;0.71;77.35
30949;BME280;17637;51.984;21.208;2022-12-07T07:26:24;99413.28;;;0.69;77.89
30949;BME280;17637;51.984;21.208;2022-12-07T07:28:56;99413.13;;;0.72;77.64
30949;BME280;17637;51.984;21.208;2022-12-07T07:31:28;99423.09;;;0.78;77.93
30949;BME280;17637;51.984;21.208;2022-12-07T07:34:00;99403.50;;;0.59;77.71
30949;BME280;17637;51.984;21.208;2022-12-07T07:36:32;99422.56;;;0.71;78.10
30949;BME280;17637;51.984;21.208;2022-12-07T07:39:04;99434.56;;;0.88;77.59
30949;BME280;17637;51.984;21.208;2022-12-07T07:41:36;99406.16;;;0.75;77.65
30949;BME280;17637;51.984;21.208;2022-12-07T07:44:09;99414.53;;;0.79;77.64
30949;BME280;17637;51.984;21.208;2022-12-07T07:46:41;99428.34;;;0.75;78.31
30949;BME280;17637;51.984;21.208;2022-12-07T07:49:13;99421.84;;;0.87;77.83
30949;BME280;17637;51.984;21.208;2022-12-07T07:51:45;99416.28;;;0.59;78.46
30949;BME280;17637;51.984;21.208;2022-12-07T07:54:17;99410.59;;;0.72;78.03
30949;BME280;17637;51.984;21.208;2022-12-07T07:56:49;99423.94;;;0.78;78.01
30949;BME280;17637;51.984;21.208;2022-12-07T07:59:21;99436.41;;;0.85;78.39
30949;BME280;17637;51.984;21.208;2022-12-07T08:01:54;99423.53;;;0.69;78.51
30949;BME280;17637;51.984;21.208;2022-12-07T08:04:26;99417.88;;;0.62;78.90
30949;BME280;17637;51.984;21.208;2022-12-07T08:06:58;99424.84;;;0.58;78.87
30949;BME280;17637;51.984;21.208;2022-12-07T08:09:30;99409.34;;;0.61;78.43
30949;BME280;17637;51.984;21.208;2022-12-07T08:12:02;99419.09;;;0.72;78.09
30949;BME280;17637;51.984;21.208;2022-12-07T08:14:34;99431.81;;;0.74;78.38
30949;BME280;17637;51.984;21.208;2022-12-07T08:17:06;99438.66;;;0.92;77.93
30949;BME280;17637;51.984;21.208;2022-12-07T08:19:39;99421.31;;;0.80;77.75
30949;BME280;17637;51.984;21.208;2022-12-07T08:22:11;99430.34;;;0.87;77.95
30949;BME280;17637;51.984;21.208;2022-12-07T08:24:42;99409.16;;;0.66;78.10
30949;BME280;17637;51.984;21.208;2022-12-07T08:27:14;99395.38;;;0.69;77.89
30949;BME280;17637;51.984;21.208;2022-12-07T08:29:46;99418.31;;;0.70;78.66
30949;BME280;17637;51.984;21.208;2022-12-07T08:32:18;99440.25;;;0.76;78.39
30949;BME280;17637;51.984;21.208;2022-12-07T08:34:52;99451.47;;;0.73;79.09
30949;BME280;17637;51.984;21.208;2022-12-07T08:37:24;99450.94;;;0.84;79.15
30949;BME280;17637;51.984;21.208;2022-12-07T08:39:56;99447.94;;;0.76;79.51
30949;BME280;17637;51.984;21.208;2022-12-07T08:42:28;99436.16;;;0.72;79.19
30949;BME280;17637;51.984;21.208;2022-12-07T08:45:03;99426.69;;;0.55;79.69
30949;BME280;17637;51.984;21.208;2022-12-07T08:47:38;99449.09;;;0.69;79.81
30949;BME280;17637;51.984;21.208;2022-12-07T08:50:11;99438.72;;;0.72;79.82
30949;BME280;17637;51.984;21.208;2022-12-07T08:52:44;99423.53;;;0.69;79.39
30949;BME280;17637;51.984;21.208;2022-12-07T08:55:19;99457.38;;;0.74;79.42
30949;BME280;17637;51.984;21.208;2022-12-07T08:57:51;99455.44;;;0.79;79.56
30949;BME280;17637;51.984;21.208;2022-12-07T09:00:23;99450.81;;;0.87;79.35
30949;BME280;17637;51.984;21.208;2022-12-07T09:02:55;99441.41;;;0.88;79.29
30949;BME280;17637;51.984;21.208;2022-12-07T09:05:27;99406.50;;;0.68;79.10
30949;BME280;17637;51.984;21.208;2022-12-07T09:08:01;99437.81;;;0.92;79.27
30949;BME280;17637;51.984;21.208;2022-12-07T09:10:33;99439.03;;;1.02;79.11
30949;BME280;17637;51.984;21.208;2022-12-07T09:13:05;99436.09;;;0.92;79.85
30949;BME280;17637;51.984;21.208;2022-12-07T09:15:37;99439.03;;;1.02;79.65
30949;BME280;17637;51.984;21.208;2022-12-07T09:18:10;99431.88;;;0.91;79.59
30949;BME280;17637;51.984;21.208;2022-12-07T09:20:41;99441.91;;;1.13;79.50
30949;BME280;17637;51.984;21.208;2022-12-07T09:23:13;99421.81;;;1.06;79.57
30949;BME280;17637;51.984;21.208;2022-12-07T09:25:45;99434.41;;;1.28;79.22
30949;BME280;17637;51.984;21.208;2022-12-07T09:28:17;99423.81;;;1.18;79.40
30949;BME280;17637;51.984;21.208;2022-12-07T09:30:50;99434.88;;;1.36;79.04
30949;BME280;17637;51.984;21.208;2022-12-07T09:33:41;99437.13;;;1.25;79.08
30949;BME280;17637;51.984;21.208;2022-12-07T09:36:14;99418.97;;;1.29;79.28
30949;BME280;17637;51.984;21.208;2022-12-07T09:38:46;99405.72;;;1.21;79.56
30949;BME280;17637;51.984;21.208;2022-12-07T09:41:18;99406.84;;;1.33;79.24
30949;BME280;17637;51.984;21.208;2022-12-07T09:43:52;99413.13;;;1.27;78.83
30949;BME280;17637;51.984;21.208;2022-12-07T09:46:24;99403.69;;;1.45;78.82
30949;BME280;17637;51.984;21.208;2022-12-07T09:48:57;99413.72;;;1.50;78.90
30949;BME280;17637;51.984;21.208;2022-12-07T09:51:30;99414.25;;;1.57;78.94
30949;BME280;17637;51.984;21.208;2022-12-07T09:54:03;99420.56;;;1.50;78.50
30949;BME280;17637;51.984;21.208;2022-12-07T09:56:35;99398.13;;;1.55;78.63
30949;BME280;17637;51.984;21.208;2022-12-07T09:59:16;99406.09;;;1.66;78.62
30949;BME280;17637;51.984;21.208;2022-12-07T10:01:50;99398.34;;;1.68;78.43
30949;BME280;17637;51.984;21.208;2022-12-07T10:04:24;99395.56;;;1.55;78.35
30949;BME280;17637;51.984;21.208;2022-12-07T10:06:57;99395.19;;;1.62;78.50
30949;BME280;17637;51.984;21.208;2022-12-07T10:09:29;99396.75;;;1.83;78.25
30949;BME280;17637;51.984;21.208;2022-12-07T10:14:52;99417.03;;;1.87;78.22
30949;BME280;17637;51.984;21.208;2022-12-07T10:17:41;99416.81;;;2.08;77.84
30949;BME280;17637;51.984;21.208;2022-12-07T10:20:24;99417.13;;;2.02;78.14
30949;BME280;17637;51.984;21.208;2022-12-07T10:25:34;99411.09;;;2.03;77.65
30949;BME280;17637;51.984;21.208;2022-12-07T10:30:51;99411.03;;;2.04;77.29
30949;BME280;17637;51.984;21.208;2022-12-07T10:34:00;99415.34;;;2.20;77.24
30949;BME280;17637;51.984;21.208;2022-12-07T10:36:36;99413.59;;;2.04;77.41
30949;BME280;17637;51.984;21.208;2022-12-07T10:39:22;99403.06;;;2.09;77.29
30949;BME280;17637;51.984;21.208;2022-12-07T10:41:59;99425.91;;;2.13;77.37
30949;BME280;17637;51.984;21.208;2022-12-07T10:44:33;99411.69;;;2.08;77.58
30949;BME280;17637;51.984;21.208;2022-12-07T10:47:18;99426.41;;;2.04;77.85
30949;BME280;17637;51.984;21.208;2022-12-07T10:50:14;99428.84;;;1.90;78.07
30949;BME280;17637;51.984;21.208;2022-12-07T10:53:02;99416.16;;;2.04;77.44
30949;BME280;17637;51.984;21.208;2022-12-07T11:02:14;99426.22;;;2.07;77.48
30949;BME280;17637;51.984;21.208;2022-12-07T11:07:13;99429.44;;;2.28;77.39
30949;BME280;17637;51.984;21.208;2022-12-07T11:10:08;99397.84;;;1.94;76.98
30949;BME280;17637;51.984;21.208;2022-12-07T11:18:40;99414.19;;;2.09;77.64
30949;BME280;17637;51.984;21.208;2022-12-07T11:29:43;99410.53;;;2.13;77.31
30949;BME280;17637;51.984;21.208;2022-12-07T11:38:18;99403.84;;;2.11;76.97
30949;BME280;17637;51.984;21.208;2022-12-07T11:41:04;99391.19;;;2.08;77.20
30949;BME280;17637;51.984;21.208;2022-12-07T11:44:00;99380.81;;;1.93;76.67
30949;BME280;17637;51.984;21.208;2022-12-07T11:46:48;99398.34;;;2.01;77.40
30949;BME280;17637;51.984;21.208;2022-12-07T11:52:35;99393.47;;;1.96;77.75
30949;BME280;17637;51.984;21.208;2022-12-07T11:55:21;99396.47;;;2.05;77.86
30949;BME280;17637;51.984;21.208;2022-12-07T11:58:05;99403.25;;;2.06;77.67
30949;BME280;17637;51.984;21.208;2022-12-07T12:00:42;99384.63;;;2.02;77.68
30949;BME280;17637;51.984;21.208;2022-12-07T12:03:21;99378.59;;;1.87;77.87
30949;BME280;17637;51.984;21.208;2022-12-07T12:05:55;99374.50;;;1.83;77.76
30949;BME280;17637;51.984;21.208;2022-12-07T12:08:34;99379.19;;;1.75;78.43
30949;BME280;17637;51.984;21.208;2022-12-07T12:22:40;99376.13;;;2.02;77.96
30949;BME280;17637;51.984;21.208;2022-12-07T12:25:27;99387.97;;;2.20;77.72
30949;BME280;17637;51.984;21.208;2022-12-07T12:28:00;99366.28;;;2.10;77.39
30949;BME280;17637;51.984;21.208;2022-12-07T12:30:39;99376.66;;;2.24;77.84
30949;BME280;17637;51.984;21.208;2022-12-07T12:33:26;99370.94;;;2.19;77.51
30949;BME280;17637;51.984;21.208;2022-12-07T12:47:01;99372.41;;;2.07;76.90
30949;BME280;17637;51.984;21.208;2022-12-07T12:49:35;99377.84;;;2.01;77.47
30949;BME280;17637;51.984;21.208;2022-12-07T12:55:13;99371.72;;;2.04;77.44
30949;BME280;17637;51.984;21.208;2022-12-07T12:57:46;99363.91;;;2.07;77.62
30949;BME280;17637;51.984;21.208;2022-12-07T13:00:26;99363.47;;;1.99;77.49
30949;BME280;17637;51.984;21.208;2022-12-07T13:03:00;99345.31;;;1.86;78.03
30949;BME280;17637;51.984;21.208;2022-12-07T13:05:32;99338.22;;;1.75;77.85
30949;BME280;17637;51.984;21.208;2022-12-07T13:08:24;99354.69;;;1.87;77.56
30949;BME280;17637;51.984;21.208;2022-12-07T13:11:34;99367.41;;;1.88;77.77
30949;BME280;17637;51.984;21.208;2022-12-07T13:20:06;99355.47;;;1.71;77.79
30949;BME280;17637;51.984;21.208;2022-12-07T13:22:49;99358.91;;;1.88;77.99
30949;BME280;17637;51.984;21.208;2022-12-07T13:25:29;99350.03;;;1.77;77.69
30949;BME280;17637;51.984;21.208;2022-12-07T13:30:57;99346.03;;;1.72;77.80
30949;BME280;17637;51.984;21.208;2022-12-07T13:33:34;99360.13;;;1.80;77.91
30949;BME280;17637;51.984;21.208;2022-12-07T13:36:18;99351.53;;;1.82;77.62
30949;BME280;17637;51.984;21.208;2022-12-07T13:38:54;99355.56;;;1.86;77.74
30949;BME280;17637;51.984;21.208;2022-12-07T13:41:29;99354.84;;;1.84;77.62
30949;BME280;17637;51.984;21.208;2022-12-07T13:44:03;99355.31;;;1.74;77.86
30949;BME280;17637;51.984;21.208;2022-12-07T13:46:56;99358.41;;;1.81;77.61
30949;BME280;17637;51.984;21.208;2022-12-07T13:49:32;99347.78;;;1.71;77.44
30949;BME280;17637;51.984;21.208;2022-12-07T13:57:37;99310.50;;;1.32;77.25
30949;BME280;17637;51.984;21.208;2022-12-07T14:00:22;99352.41;;;1.64;77.26
30949;BME280;17637;51.984;21.208;2022-12-07T14:03:22;99341.66;;;1.58;77.16
30949;BME280;17637;51.984;21.208;2022-12-07T14:06:06;99365.34;;;1.61;77.43
30949;BME280;17637;51.984;21.208;2022-12-07T14:08:38;99360.31;;;1.60;77.85
30949;BME280;17637;51.984;21.208;2022-12-07T14:11:17;99342.41;;;1.42;77.77
30949;BME280;17637;51.984;21.208;2022-12-07T14:13:58;99352.22;;;1.68;77.15
30949;BME280;17637;51.984;21.208;2022-12-07T14:16:36;99355.56;;;1.70;77.15
30949;BME280;17637;51.984;21.208;2022-12-07T14:19:43;99355.97;;;1.78;76.67
30949;BME280;17637;51.984;21.208;2022-12-07T14:22:26;99365.72;;;1.71;76.87
30949;BME280;17637;51.984;21.208;2022-12-07T14:25:17;99359.56;;;1.40;77.57
30949;BME280;17637;51.984;21.208;2022-12-07T14:27:58;99359.03;;;1.51;77.05
30949;BME280;17637;51.984;21.208;2022-12-07T14:30:32;99336.22;;;1.29;77.78
30949;BME280;17637;51.984;21.208;2022-12-07T14:33:08;99356.84;;;1.43;77.46
30949;BME280;17637;51.984;21.208;2022-12-07T14:35:41;99351.97;;;1.39;77.60
30949;BME280;17637;51.984;21.208;2022-12-07T14:38:13;99343.00;;;1.30;76.99
30949;BME280;17637;51.984;21.208;2022-12-07T14:40:45;99349.84;;;1.47;76.63
30949;BME280;17637;51.984;21.208;2022-12-07T14:43:18;99337.81;;;1.31;76.31
30949;BME280;17637;51.984;21.208;2022-12-07T14:45:50;99332.47;;;1.19;76.38
30949;BME280;17637;51.984;21.208;2022-12-07T14:48:23;99351.81;;;1.24;76.38
30949;BME280;17637;51.984;21.208;2022-12-07T14:51:15;99363.50;;;1.30;76.52
30949;BME280;17637;51.984;21.208;2022-12-07T14:54:16;99365.16;;;1.31;76.04
30949;BME280;17637;51.984;21.208;2022-12-07T14:56:49;99371.84;;;1.16;76.79
30949;BME280;17637;51.984;21.208;2022-12-07T14:59:22;99364.88;;;0.83;77.11
30949;BME280;17637;51.984;21.208;2022-12-07T15:01:55;99345.91;;;0.87;77.72
30949;BME280;17637;51.984;21.208;2022-12-07T15:04:27;99342.16;;;0.94;76.75
30949;BME280;17637;51.984;21.208;2022-12-07T15:07:01;99371.06;;;1.14;77.22
30949;BME280;17637;51.984;21.208;2022-12-07T15:09:34;99346.22;;;0.98;77.12
30949;BME280;17637;51.984;21.208;2022-12-07T15:12:06;99319.44;;;0.88;76.94
30949;BME280;17637;51.984;21.208;2022-12-07T15:14:38;99363.47;;;1.12;76.53
30949;BME280;17637;51.984;21.208;2022-12-07T15:17:11;99356.09;;;1.06;76.64
30949;BME280;17637;51.984;21.208;2022-12-07T15:20:02;99354.16;;;1.11;76.92
30949;BME280;17637;51.984;21.208;2022-12-07T15:22:35;99332.19;;;0.90;76.94
30949;BME280;17637;51.984;21.208;2022-12-07T15:25:12;99352.72;;;1.06;77.23
30949;BME280;17637;51.984;21.208;2022-12-07T15:27:45;99343.50;;;0.84;77.46
30949;BME280;17637;51.984;21.208;2022-12-07T15:30:17;99337.13;;;0.93;77.58